sensor_id;sensor_type;location;lat;lon;timestamp;P1;durP1;ratioP1;P2;durP2;ratioP2
66987;SDS011;53908;51.464;-2.588;2022-09-30T00:01:07;38.40;;;21.27;;
66987;SDS011;53908;51.464;-2.588;2022-09-30T00:03:33;40.05;;;21.02;;
66987;SDS011;53908;51.464;-2.588;2022-09-30T00:06:01;36.75;;;21.10;;
66987;SDS011;53908;51.464;-2.588;2022-09-30T00:08:28;33.03;;;19.98;;
66987;SDS011;53908;51.464;-2.588;2022-09-30T00:11:13;34.05;;;19.67;;
66987;SDS011;53908;51.464;-2.588;2022-09-30T00:13:41;36.53;;;19.42;;
66987;SDS011;53908;51.464;-2.588;2022-09-30T00:16:09;37.80;;;19.88;;
66987;SDS011;53908;51.464;-2.588;2022-09-30T00:18:36;34.50;;;19.15;;
66987;SDS011;53908;51.464;-2.588;2022-09-30T00:21:02;31.65;;;18.30;;
66987;SDS011;53908;51.464;-2.588;2022-09-30T00:23:28;32.17;;;18.15;;
66987;SDS011;53908;51.464;-2.588;2022-09-30T00:25:57;35.38;;;18.52;;
66987;SDS011;53908;51.464;-2.588;2022-09-30T00:28:27;31.80;;;18.27;;
66987;SDS011;53908;51.464;-2.588;2022-09-30T00:30:53;33.45;;;19.38;;
66987;SDS011;53908;51.464;-2.588;2022-09-30T00:33:21;35.00;;;19.00;;
66987;SDS011;53908;51.464;-2.588;2022-09-30T00:35:49;31.25;;;18.33;;
66987;SDS011;53908;51.464;-2.588;2022-09-30T00:38:15;33.30;;;18.38;;
66987;SDS011;53908;51.464;-2.588;2022-09-30T00:40:40;32.75;;;18.77;;
66987;SDS011;53908;51.464;-2.588;2022-09-30T00:43:14;32.35;;;19.13;;
66987;SDS011;53908;51.464;-2.588;2022-09-30T00:46:03;32.80;;;17.98;;
66987;SDS011;53908;51.464;-2.588;2022-09-30T00:48:35;32.38;;;18.55;;
66987;SDS011;53908;51.464;-2.588;2022-09-30T00:51:02;32.92;;;18.25;;
66987;SDS011;53908;51.464;-2.588;2022-09-30T00:53:33;31.95;;;18.20;;
66987;SDS011;53908;51.464;-2.588;2022-09-30T00:56:09;32.42;;;17.10;;
66987;SDS011;53908;51.464;-2.588;2022-09-30T01:03:37;27.27;;;15.70;;
66987;SDS011;53908;51.464;-2.588;2022-09-30T01:06:05;28.27;;;16.27;;
66987;SDS011;53908;51.464;-2.588;2022-09-30T01:08:32;23.98;;;15.52;;
66987;SDS011;53908;51.464;-2.588;2022-09-30T01:11:01;27.90;;;15.52;;
66987;SDS011;53908;51.464;-2.588;2022-09-30T01:13:27;26.17;;;14.88;;
66987;SDS011;53908;51.464;-2.588;2022-09-30T01:32:32;27.27;;;13.93;;
66987;SDS011;53908;51.464;-2.588;2022-09-30T01:35:16;24.10;;;14.35;;
66987;SDS011;53908;51.464;-2.588;2022-09-30T01:51:25;25.00;;;14.32;;
66987;SDS011;53908;51.464;-2.588;2022-09-30T01:53:56;26.77;;;14.00;;
66987;SDS011;53908;51.464;-2.588;2022-09-30T01:56:45;24.05;;;15.05;;
66987;SDS011;53908;51.464;-2.588;2022-09-30T01:59:14;25.75;;;13.80;;
66987;SDS011;53908;51.464;-2.588;2022-09-30T02:02:46;24.30;;;13.85;;
66987;SDS011;53908;51.464;-2.588;2022-09-30T02:04:44;24.58;;;15.30;;
66987;SDS011;53908;51.464;-2.588;2022-09-30T02:07:15;25.60;;;14.65;;
66987;SDS011;53908;51.464;-2.588;2022-09-30T02:09:47;27.85;;;15.77;;
66987;SDS011;53908;51.464;-2.588;2022-09-30T02:12:17;26.95;;;15.57;;
66987;SDS011;53908;51.464;-2.588;2022-09-30T02:14:52;30.70;;;15.18;;
66987;SDS011;53908;51.464;-2.588;2022-09-30T02:17:27;30.23;;;16.38;;
66987;SDS011;53908;51.464;-2.588;2022-09-30T02:20:00;24.20;;;15.25;;
66987;SDS011;53908;51.464;-2.588;2022-09-30T02:22:30;24.92;;;14.95;;
66987;SDS011;53908;51.464;-2.588;2022-09-30T02:24:59;24.00;;;15.38;;
66987;SDS011;53908;51.464;-2.588;2022-09-30T02:27:32;26.38;;;15.05;;
66987;SDS011;53908;51.464;-2.588;2022-09-30T02:30:06;26.38;;;14.55;;
66987;SDS011;53908;51.464;-2.588;2022-09-30T02:32:44;27.55;;;14.55;;
66987;SDS011;53908;51.464;-2.588;2022-09-30T02:35:16;31.45;;;14.80;;
66987;SDS011;53908;51.464;-2.588;2022-09-30T02:38:10;26.20;;;14.48;;
66987;SDS011;53908;51.464;-2.588;2022-09-30T02:40:45;23.90;;;14.05;;
66987;SDS011;53908;51.464;-2.588;2022-09-30T02:43:14;29.73;;;15.32;;
66987;SDS011;53908;51.464;-2.588;2022-09-30T02:48:23;24.05;;;14.77;;
66987;SDS011;53908;51.464;-2.588;2022-09-30T02:51:21;25.52;;;14.38;;
66987;SDS011;53908;51.464;-2.588;2022-09-30T02:59:20;25.85;;;14.50;;
66987;SDS011;53908;51.464;-2.588;2022-09-30T03:01:46;22.63;;;13.70;;
66987;SDS011;53908;51.464;-2.588;2022-09-30T03:04:13;21.10;;;14.07;;
66987;SDS011;53908;51.464;-2.588;2022-09-30T03:06:40;25.67;;;13.52;;
66987;SDS011;53908;51.464;-2.588;2022-09-30T03:09:06;23.70;;;13.68;;
66987;SDS011;53908;51.464;-2.588;2022-09-30T03:11:31;23.55;;;13.90;;
66987;SDS011;53908;51.464;-2.588;2022-09-30T03:17:12;19.30;;;12.40;;
66987;SDS011;53908;51.464;-2.588;2022-09-30T03:25:55;20.02;;;12.25;;
66987;SDS011;53908;51.464;-2.588;2022-09-30T03:33:57;21.23;;;12.95;;
66987;SDS011;53908;51.464;-2.588;2022-09-30T03:37:00;21.98;;;11.07;;
66987;SDS011;53908;51.464;-2.588;2022-09-30T03:42:28;18.63;;;11.30;;
66987;SDS011;53908;51.464;-2.588;2022-09-30T03:47:46;21.30;;;11.35;;
66987;SDS011;53908;51.464;-2.588;2022-09-30T03:50:14;18.38;;;11.35;;
66987;SDS011;53908;51.464;-2.588;2022-09-30T03:52:44;22.17;;;11.80;;
66987;SDS011;53908;51.464;-2.588;2022-09-30T03:55:09;17.67;;;11.10;;
66987;SDS011;53908;51.464;-2.588;2022-09-30T03:57:36;19.50;;;11.65;;
66987;SDS011;53908;51.464;-2.588;2022-09-30T04:00:02;18.95;;;10.68;;
66987;SDS011;53908;51.464;-2.588;2022-09-30T04:02:29;22.60;;;11.48;;
66987;SDS011;53908;51.464;-2.588;2022-09-30T04:04:55;19.08;;;12.13;;
66987;SDS011;53908;51.464;-2.588;2022-09-30T04:07:20;22.02;;;11.90;;
66987;SDS011;53908;51.464;-2.588;2022-09-30T04:09:45;21.90;;;12.13;;
66987;SDS011;53908;51.464;-2.588;2022-09-30T04:12:14;20.42;;;11.68;;
66987;SDS011;53908;51.464;-2.588;2022-09-30T04:14:39;22.38;;;11.90;;
66987;SDS011;53908;51.464;-2.588;2022-09-30T04:17:05;17.73;;;11.45;;
66987;SDS011;53908;51.464;-2.588;2022-09-30T04:19:31;19.85;;;11.85;;
66987;SDS011;53908;51.464;-2.588;2022-09-30T04:22:02;17.80;;;11.10;;
66987;SDS011;53908;51.464;-2.588;2022-09-30T04:24:27;19.33;;;11.23;;
66987;SDS011;53908;51.464;-2.588;2022-09-30T04:26:53;16.30;;;10.07;;
66987;SDS011;53908;51.464;-2.588;2022-09-30T04:29:19;16.63;;;10.20;;
66987;SDS011;53908;51.464;-2.588;2022-09-30T04:31:44;13.73;;;10.18;;
66987;SDS011;53908;51.464;-2.588;2022-09-30T04:34:09;18.30;;;10.68;;
66987;SDS011;53908;51.464;-2.588;2022-09-30T04:36:36;17.05;;;10.50;;
66987;SDS011;53908;51.464;-2.588;2022-09-30T04:39:01;16.42;;;10.30;;
66987;SDS011;53908;51.464;-2.588;2022-09-30T04:41:27;17.00;;;10.95;;
66987;SDS011;53908;51.464;-2.588;2022-09-30T04:43:53;21.33;;;10.70;;
66987;SDS011;53908;51.464;-2.588;2022-09-30T04:46:19;17.08;;;10.95;;
66987;SDS011;53908;51.464;-2.588;2022-09-30T04:48:46;18.50;;;11.68;;
66987;SDS011;53908;51.464;-2.588;2022-09-30T04:51:19;17.25;;;10.80;;
66987;SDS011;53908;51.464;-2.588;2022-09-30T04:53:45;18.33;;;11.18;;
66987;SDS011;53908;51.464;-2.588;2022-09-30T04:56:11;19.15;;;10.88;;
66987;SDS011;53908;51.464;-2.588;2022-09-30T04:58:37;19.65;;;11.00;;
66987;SDS011;53908;51.464;-2.588;2022-09-30T05:01:04;17.30;;;10.43;;
66987;SDS011;53908;51.464;-2.588;2022-09-30T05:03:33;14.27;;;10.63;;
66987;SDS011;53908;51.464;-2.588;2022-09-30T05:06:00;16.60;;;11.25;;
66987;SDS011;53908;51.464;-2.588;2022-09-30T05:08:26;15.13;;;9.65;;
66987;SDS011;53908;51.464;-2.588;2022-09-30T05:10:55;18.17;;;11.50;;
66987;SDS011;53908;51.464;-2.588;2022-09-30T05:13:25;16.13;;;10.95;;
66987;SDS011;53908;51.464;-2.588;2022-09-30T05:15:54;17.25;;;11.82;;
66987;SDS011;53908;51.464;-2.588;2022-09-30T05:18:20;16.63;;;10.65;;
66987;SDS011;53908;51.464;-2.588;2022-09-30T05:20:49;17.00;;;11.20;;
66987;SDS011;53908;51.464;-2.588;2022-09-30T05:23:15;15.27;;;10.30;;
66987;SDS011;53908;51.464;-2.588;2022-09-30T05:25:42;18.35;;;10.88;;
66987;SDS011;53908;51.464;-2.588;2022-09-30T05:28:07;20.25;;;12.13;;
66987;SDS011;53908;51.464;-2.588;2022-09-30T05:30:33;16.58;;;10.50;;
66987;SDS011;53908;51.464;-2.588;2022-09-30T05:32:58;21.23;;;12.60;;
66987;SDS011;53908;51.464;-2.588;2022-09-30T05:35:23;18.27;;;11.27;;
66987;SDS011;53908;51.464;-2.588;2022-09-30T05:37:49;17.67;;;11.10;;
66987;SDS011;53908;51.464;-2.588;2022-09-30T05:40:14;17.52;;;11.18;;
66987;SDS011;53908;51.464;-2.588;2022-09-30T05:42:40;18.88;;;10.30;;
66987;SDS011;53908;51.464;-2.588;2022-09-30T05:45:06;15.50;;;10.68;;
66987;SDS011;53908;51.464;-2.588;2022-09-30T05:47:32;13.57;;;9.80;;
66987;SDS011;53908;51.464;-2.588;2022-09-30T05:49:58;42.20;;;19.65;;
66987;SDS011;53908;51.464;-2.588;2022-09-30T05:52:23;37.70;;;18.35;;
66987;SDS011;53908;51.464;-2.588;2022-09-30T05:54:51;19.98;;;12.20;;
66987;SDS011;53908;51.464;-2.588;2022-09-30T05:57:17;26.85;;;13.70;;
66987;SDS011;53908;51.464;-2.588;2022-09-30T05:59:42;25.38;;;14.50;;
66987;SDS011;53908;51.464;-2.588;2022-09-30T06:02:08;18.35;;;10.85;;
66987;SDS011;53908;51.464;-2.588;2022-09-30T06:04:34;15.30;;;10.00;;
66987;SDS011;53908;51.464;-2.588;2022-09-30T06:07:00;15.77;;;10.32;;
66987;SDS011;53908;51.464;-2.588;2022-09-30T06:09:25;17.23;;;10.95;;
66987;SDS011;53908;51.464;-2.588;2022-09-30T06:11:51;20.60;;;11.48;;
66987;SDS011;53908;51.464;-2.588;2022-09-30T06:14:17;18.80;;;10.88;;
66987;SDS011;53908;51.464;-2.588;2022-09-30T06:16:44;17.23;;;10.77;;
66987;SDS011;53908;51.464;-2.588;2022-09-30T06:19:09;14.93;;;10.40;;
66987;SDS011;53908;51.464;-2.588;2022-09-30T06:21:35;18.25;;;11.05;;
66987;SDS011;53908;51.464;-2.588;2022-09-30T06:24:01;14.95;;;10.00;;
66987;SDS011;53908;51.464;-2.588;2022-09-30T06:26:26;16.38;;;10.00;;
66987;SDS011;53908;51.464;-2.588;2022-09-30T06:28:52;14.70;;;10.20;;
66987;SDS011;53908;51.464;-2.588;2022-09-30T06:31:18;17.58;;;10.27;;
66987;SDS011;53908;51.464;-2.588;2022-09-30T06:33:43;17.08;;;10.35;;
66987;SDS011;53908;51.464;-2.588;2022-09-30T06:36:09;14.73;;;10.18;;
66987;SDS011;53908;51.464;-2.588;2022-09-30T06:38:34;16.30;;;9.95;;
66987;SDS011;53908;51.464;-2.588;2022-09-30T06:41:01;14.98;;;9.85;;
66987;SDS011;53908;51.464;-2.588;2022-09-30T06:43:27;18.50;;;9.98;;
66987;SDS011;53908;51.464;-2.588;2022-09-30T06:45:53;13.10;;;9.48;;
66987;SDS011;53908;51.464;-2.588;2022-09-30T06:48:18;13.10;;;9.07;;
66987;SDS011;53908;51.464;-2.588;2022-09-30T06:50:44;14.45;;;9.13;;
66987;SDS011;53908;51.464;-2.588;2022-09-30T06:53:10;11.93;;;8.50;;
66987;SDS011;53908;51.464;-2.588;2022-09-30T06:55:37;11.55;;;8.27;;
66987;SDS011;53908;51.464;-2.588;2022-09-30T06:58:04;11.27;;;7.75;;
66987;SDS011;53908;51.464;-2.588;2022-09-30T07:00:32;9.77;;;7.22;;
66987;SDS011;53908;51.464;-2.588;2022-09-30T07:02:58;12.05;;;6.80;;
66987;SDS011;53908;51.464;-2.588;2022-09-30T07:05:23;11.20;;;6.90;;
66987;SDS011;53908;51.464;-2.588;2022-09-30T07:07:51;9.18;;;6.63;;
66987;SDS011;53908;51.464;-2.588;2022-09-30T07:10:17;9.35;;;7.10;;
66987;SDS011;53908;51.464;-2.588;2022-09-30T07:12:42;9.10;;;6.70;;
66987;SDS011;53908;51.464;-2.588;2022-09-30T07:15:08;11.90;;;7.10;;
66987;SDS011;53908;51.464;-2.588;2022-09-30T07:17:33;9.63;;;7.15;;
66987;SDS011;53908;51.464;-2.588;2022-09-30T07:19:59;12.20;;;7.72;;
66987;SDS011;53908;51.464;-2.588;2022-09-30T07:22:25;15.48;;;7.75;;
66987;SDS011;53908;51.464;-2.588;2022-09-30T07:24:59;14.75;;;7.68;;
66987;SDS011;53908;51.464;-2.588;2022-09-30T07:27:26;12.23;;;7.53;;
66987;SDS011;53908;51.464;-2.588;2022-09-30T07:29:52;13.10;;;8.05;;
66987;SDS011;53908;51.464;-2.588;2022-09-30T07:32:18;15.02;;;8.68;;
66987;SDS011;53908;51.464;-2.588;2022-09-30T07:34:45;11.80;;;7.80;;
66987;SDS011;53908;51.464;-2.588;2022-09-30T07:37:12;13.98;;;8.43;;
66987;SDS011;53908;51.464;-2.588;2022-09-30T07:39:44;16.83;;;8.57;;
66987;SDS011;53908;51.464;-2.588;2022-09-30T07:42:11;15.27;;;8.43;;
66987;SDS011;53908;51.464;-2.588;2022-09-30T07:44:38;16.40;;;8.80;;
66987;SDS011;53908;51.464;-2.588;2022-09-30T07:47:06;14.32;;;8.38;;
66987;SDS011;53908;51.464;-2.588;2022-09-30T07:49:32;14.32;;;9.35;;
66987;SDS011;53908;51.464;-2.588;2022-09-30T07:51:58;15.35;;;8.68;;
66987;SDS011;53908;51.464;-2.588;2022-09-30T07:54:25;12.10;;;6.95;;
66987;SDS011;53908;51.464;-2.588;2022-09-30T07:56:55;12.55;;;7.47;;
66987;SDS011;53908;51.464;-2.588;2022-09-30T07:59:22;12.77;;;7.70;;
66987;SDS011;53908;51.464;-2.588;2022-09-30T08:01:47;10.55;;;7.45;;
66987;SDS011;53908;51.464;-2.588;2022-09-30T08:04:14;7.55;;;6.00;;
66987;SDS011;53908;51.464;-2.588;2022-09-30T08:06:42;9.13;;;6.10;;
66987;SDS011;53908;51.464;-2.588;2022-09-30T08:09:10;9.63;;;6.07;;
66987;SDS011;53908;51.464;-2.588;2022-09-30T08:11:36;9.57;;;4.80;;
66987;SDS011;53908;51.464;-2.588;2022-09-30T08:14:03;9.23;;;5.15;;
66987;SDS011;53908;51.464;-2.588;2022-09-30T08:16:28;11.40;;;4.70;;
66987;SDS011;53908;51.464;-2.588;2022-09-30T08:18:54;8.57;;;4.60;;
66987;SDS011;53908;51.464;-2.588;2022-09-30T08:21:21;8.20;;;4.50;;
66987;SDS011;53908;51.464;-2.588;2022-09-30T08:23:46;9.88;;;5.18;;
66987;SDS011;53908;51.464;-2.588;2022-09-30T08:26:15;8.07;;;4.35;;
66987;SDS011;53908;51.464;-2.588;2022-09-30T08:28:41;8.63;;;4.35;;
66987;SDS011;53908;51.464;-2.588;2022-09-30T08:31:08;8.95;;;4.25;;
66987;SDS011;53908;51.464;-2.588;2022-09-30T08:33:35;5.80;;;4.40;;
66987;SDS011;53908;51.464;-2.588;2022-09-30T08:36:02;10.65;;;6.50;;
66987;SDS011;53908;51.464;-2.588;2022-09-30T08:38:29;8.63;;;4.15;;
66987;SDS011;53908;51.464;-2.588;2022-09-30T08:41:02;5.82;;;3.80;;
66987;SDS011;53908;51.464;-2.588;2022-09-30T08:44:22;6.60;;;3.72;;
66987;SDS011;53908;51.464;-2.588;2022-09-30T08:51:58;6.80;;;3.90;;
66987;SDS011;53908;51.464;-2.588;2022-09-30T08:54:25;9.10;;;3.83;;
66987;SDS011;53908;51.464;-2.588;2022-09-30T08:56:54;8.75;;;4.25;;
66987;SDS011;53908;51.464;-2.588;2022-09-30T09:01:58;8.02;;;3.80;;
66987;SDS011;53908;51.464;-2.588;2022-09-30T09:04:26;4.60;;;3.03;;
66987;SDS011;53908;51.464;-2.588;2022-09-30T09:06:55;5.00;;;3.13;;
66987;SDS011;53908;51.464;-2.588;2022-09-30T09:09:30;8.38;;;3.47;;
66987;SDS011;53908;51.464;-2.588;2022-09-30T09:14:43;7.32;;;2.83;;
66987;SDS011;53908;51.464;-2.588;2022-09-30T09:20:24;4.55;;;2.35;;
66987;SDS011;53908;51.464;-2.588;2022-09-30T09:22:55;7.38;;;2.45;;
66987;SDS011;53908;51.464;-2.588;2022-09-30T09:25:23;4.30;;;2.20;;
66987;SDS011;53908;51.464;-2.588;2022-09-30T09:27:56;3.88;;;2.10;;
66987;SDS011;53908;51.464;-2.588;2022-09-30T09:30:24;4.75;;;2.58;;
66987;SDS011;53908;51.464;-2.588;2022-09-30T09:32:51;3.70;;;2.20;;
66987;SDS011;53908;51.464;-2.588;2022-09-30T09:35:39;3.88;;;2.20;;
66987;SDS011;53908;51.464;-2.588;2022-09-30T09:48:43;2.97;;;1.60;;
66987;SDS011;53908;51.464;-2.588;2022-09-30T09:51:25;3.30;;;1.65;;
66987;SDS011;53908;51.464;-2.588;2022-09-30T09:53:53;4.07;;;1.77;;
66987;SDS011;53908;51.464;-2.588;2022-09-30T09:56:24;4.97;;;1.60;;
66987;SDS011;53908;51.464;-2.588;2022-09-30T09:59:04;5.00;;;1.58;;
66987;SDS011;53908;51.464;-2.588;2022-09-30T10:01:51;3.00;;;1.60;;
66987;SDS011;53908;51.464;-2.588;2022-09-30T10:04:25;3.63;;;1.67;;
66987;SDS011;53908;51.464;-2.588;2022-09-30T10:07:01;3.58;;;1.83;;
66987;SDS011;53908;51.464;-2.588;2022-09-30T10:09:38;7.38;;;2.67;;
66987;SDS011;53908;51.464;-2.588;2022-09-30T10:14:30;5.80;;;1.98;;
66987;SDS011;53908;51.464;-2.588;2022-09-30T10:16:57;4.30;;;1.95;;
66987;SDS011;53908;51.464;-2.588;2022-09-30T10:19:26;7.53;;;2.35;;
66987;SDS011;53908;51.464;-2.588;2022-09-30T10:22:16;5.80;;;2.08;;
66987;SDS011;53908;51.464;-2.588;2022-09-30T10:24:40;7.50;;;2.30;;
66987;SDS011;53908;51.464;-2.588;2022-09-30T10:27:46;7.05;;;1.92;;
66987;SDS011;53908;51.464;-2.588;2022-09-30T10:29:59;3.55;;;2.30;;
66987;SDS011;53908;51.464;-2.588;2022-09-30T10:32:24;2.40;;;1.75;;
66987;SDS011;53908;51.464;-2.588;2022-09-30T10:34:54;5.38;;;1.70;;
66987;SDS011;53908;51.464;-2.588;2022-09-30T10:37:24;7.43;;;2.22;;
66987;SDS011;53908;51.464;-2.588;2022-09-30T10:39:53;10.15;;;2.42;;
66987;SDS011;53908;51.464;-2.588;2022-09-30T10:42:23;4.35;;;2.13;;
66987;SDS011;53908;51.464;-2.588;2022-09-30T10:47:27;5.50;;;2.03;;
66987;SDS011;53908;51.464;-2.588;2022-09-30T10:52:28;8.10;;;1.80;;
66987;SDS011;53908;51.464;-2.588;2022-09-30T10:54:57;6.95;;;1.92;;
66987;SDS011;53908;51.464;-2.588;2022-09-30T10:57:28;2.70;;;1.48;;
66987;SDS011;53908;51.464;-2.588;2022-09-30T11:05:27;3.45;;;1.80;;
66987;SDS011;53908;51.464;-2.588;2022-09-30T11:08:03;4.82;;;1.55;;
66987;SDS011;53908;51.464;-2.588;2022-09-30T11:10:45;7.22;;;1.83;;
66987;SDS011;53908;51.464;-2.588;2022-09-30T11:21:52;5.13;;;2.00;;
66987;SDS011;53908;51.464;-2.588;2022-09-30T11:24:33;6.00;;;1.77;;
66987;SDS011;53908;51.464;-2.588;2022-09-30T11:27:11;4.22;;;1.70;;
66987;SDS011;53908;51.464;-2.588;2022-09-30T11:32:29;5.18;;;2.03;;
66987;SDS011;53908;51.464;-2.588;2022-09-30T11:38:13;7.15;;;1.90;;
66987;SDS011;53908;51.464;-2.588;2022-09-30T11:43:30;4.38;;;1.90;;
66987;SDS011;53908;51.464;-2.588;2022-09-30T11:57:13;11.18;;;2.75;;
66987;SDS011;53908;51.464;-2.588;2022-09-30T11:59:47;9.07;;;2.17;;
66987;SDS011;53908;51.464;-2.588;2022-09-30T12:02:36;8.90;;;2.58;;
66987;SDS011;53908;51.464;-2.588;2022-09-30T12:05:05;8.55;;;3.00;;
66987;SDS011;53908;51.464;-2.588;2022-09-30T12:07:43;8.07;;;2.90;;
66987;SDS011;53908;51.464;-2.588;2022-09-30T12:10:19;10.73;;;3.08;;
66987;SDS011;53908;51.464;-2.588;2022-09-30T12:12:54;8.25;;;2.70;;
66987;SDS011;53908;51.464;-2.588;2022-09-30T12:15:23;9.00;;;3.17;;
66987;SDS011;53908;51.464;-2.588;2022-09-30T12:17:54;8.60;;;3.00;;
66987;SDS011;53908;51.464;-2.588;2022-09-30T12:20:34;7.07;;;3.00;;
66987;SDS011;53908;51.464;-2.588;2022-09-30T12:26:01;11.63;;;3.00;;
66987;SDS011;53908;51.464;-2.588;2022-09-30T12:28:32;4.25;;;2.42;;
66987;SDS011;53908;51.464;-2.588;2022-09-30T12:31:24;6.32;;;2.30;;
66987;SDS011;53908;51.464;-2.588;2022-09-30T12:37:16;7.35;;;2.45;;
66987;SDS011;53908;51.464;-2.588;2022-09-30T12:48:09;6.57;;;2.00;;
66987;SDS011;53908;51.464;-2.588;2022-09-30T12:50:42;6.00;;;2.10;;
66987;SDS011;53908;51.464;-2.588;2022-09-30T12:53:14;3.65;;;1.52;;
66987;SDS011;53908;51.464;-2.588;2022-09-30T12:55:42;3.13;;;1.90;;
66987;SDS011;53908;51.464;-2.588;2022-09-30T12:58:21;3.83;;;1.70;;
66987;SDS011;53908;51.464;-2.588;2022-09-30T13:03:52;6.70;;;1.98;;
66987;SDS011;53908;51.464;-2.588;2022-09-30T13:11:44;3.65;;;1.52;;
66987;SDS011;53908;51.464;-2.588;2022-09-30T13:14:22;2.80;;;1.25;;
66987;SDS011;53908;51.464;-2.588;2022-09-30T13:19:32;2.35;;;1.35;;
66987;SDS011;53908;51.464;-2.588;2022-09-30T13:27:36;4.15;;;1.58;;
66987;SDS011;53908;51.464;-2.588;2022-09-30T13:32:42;3.08;;;1.13;;
66987;SDS011;53908;51.464;-2.588;2022-09-30T13:45:57;2.38;;;1.33;;
66987;SDS011;53908;51.464;-2.588;2022-09-30T13:48:31;2.67;;;1.70;;
66987;SDS011;53908;51.464;-2.588;2022-09-30T13:50:59;6.07;;;1.80;;
66987;SDS011;53908;51.464;-2.588;2022-09-30T13:53:40;2.88;;;1.67;;
66987;SDS011;53908;51.464;-2.588;2022-09-30T13:56:21;2.57;;;1.40;;
66987;SDS011;53908;51.464;-2.588;2022-09-30T14:04:42;2.45;;;1.30;;
66987;SDS011;53908;51.464;-2.588;2022-09-30T14:23:29;3.90;;;1.27;;
66987;SDS011;53908;51.464;-2.588;2022-09-30T14:26:19;3.30;;;1.48;;
66987;SDS011;53908;51.464;-2.588;2022-09-30T14:31:54;3.72;;;1.17;;
66987;SDS011;53908;51.464;-2.588;2022-09-30T14:34:20;3.60;;;1.60;;
66987;SDS011;53908;51.464;-2.588;2022-09-30T14:36:47;3.80;;;1.33;;
66987;SDS011;53908;51.464;-2.588;2022-09-30T14:39:17;4.63;;;1.83;;
66987;SDS011;53908;51.464;-2.588;2022-09-30T14:41:47;2.65;;;1.65;;
66987;SDS011;53908;51.464;-2.588;2022-09-30T14:44:14;4.68;;;1.80;;
66987;SDS011;53908;51.464;-2.588;2022-09-30T14:46:42;2.38;;;1.20;;
66987;SDS011;53908;51.464;-2.588;2022-09-30T14:49:12;4.28;;;1.30;;
66987;SDS011;53908;51.464;-2.588;2022-09-30T14:51:42;4.22;;;1.33;;
66987;SDS011;53908;51.464;-2.588;2022-09-30T14:56:42;2.95;;;1.10;;
66987;SDS011;53908;51.464;-2.588;2022-09-30T15:01:43;3.97;;;0.90;;
66987;SDS011;53908;51.464;-2.588;2022-09-30T15:04:23;4.30;;;1.35;;
66987;SDS011;53908;51.464;-2.588;2022-09-30T15:06:50;1.55;;;0.90;;
66987;SDS011;53908;51.464;-2.588;2022-09-30T15:09:33;4.72;;;1.38;;
66987;SDS011;53908;51.464;-2.588;2022-09-30T15:12:11;3.17;;;1.00;;
66987;SDS011;53908;51.464;-2.588;2022-09-30T15:14:46;3.97;;;1.05;;
66987;SDS011;53908;51.464;-2.588;2022-09-30T15:17:17;4.07;;;1.08;;
66987;SDS011;53908;51.464;-2.588;2022-09-30T15:19:44;4.82;;;1.00;;
66987;SDS011;53908;51.464;-2.588;2022-09-30T15:22:10;2.40;;;1.05;;
66987;SDS011;53908;51.464;-2.588;2022-09-30T15:24:39;5.05;;;1.10;;
66987;SDS011;53908;51.464;-2.588;2022-09-30T15:27:06;6.18;;;1.20;;
66987;SDS011;53908;51.464;-2.588;2022-09-30T15:29:52;2.42;;;1.10;;
66987;SDS011;53908;51.464;-2.588;2022-09-30T15:32:19;4.05;;;1.08;;
66987;SDS011;53908;51.464;-2.588;2022-09-30T15:34:46;5.63;;;1.40;;
66987;SDS011;53908;51.464;-2.588;2022-09-30T15:37:22;3.05;;;0.88;;
66987;SDS011;53908;51.464;-2.588;2022-09-30T15:39:48;3.90;;;1.20;;
66987;SDS011;53908;51.464;-2.588;2022-09-30T15:47:57;4.13;;;0.98;;
66987;SDS011;53908;51.464;-2.588;2022-09-30T15:50:41;4.18;;;1.05;;
66987;SDS011;53908;51.464;-2.588;2022-09-30T15:53:13;4.97;;;1.07;;
66987;SDS011;53908;51.464;-2.588;2022-09-30T15:55:40;4.43;;;0.88;;
66987;SDS011;53908;51.464;-2.588;2022-09-30T15:58:29;3.60;;;1.00;;
66987;SDS011;53908;51.464;-2.588;2022-09-30T16:01:21;3.80;;;1.05;;
66987;SDS011;53908;51.464;-2.588;2022-09-30T16:03:51;4.45;;;0.90;;
66987;SDS011;53908;51.464;-2.588;2022-09-30T16:06:29;6.88;;;1.02;;
66987;SDS011;53908;51.464;-2.588;2022-09-30T16:09:02;4.43;;;1.27;;
66987;SDS011;53908;51.464;-2.588;2022-09-30T16:14:01;2.63;;;1.08;;
66987;SDS011;53908;51.464;-2.588;2022-09-30T16:16:30;4.38;;;1.30;;
66987;SDS011;53908;51.464;-2.588;2022-09-30T16:18:56;5.63;;;1.20;;
66987;SDS011;53908;51.464;-2.588;2022-09-30T16:21:29;2.50;;;1.00;;
66987;SDS011;53908;51.464;-2.588;2022-09-30T16:24:57;2.25;;;1.00;;
66987;SDS011;53908;51.464;-2.588;2022-09-30T16:27:12;4.28;;;1.20;;
66987;SDS011;53908;51.464;-2.588;2022-09-30T16:29:44;9.57;;;1.05;;
66987;SDS011;53908;51.464;-2.588;2022-09-30T16:32:09;4.32;;;1.30;;
66987;SDS011;53908;51.464;-2.588;2022-09-30T16:34:35;4.45;;;1.10;;
66987;SDS011;53908;51.464;-2.588;2022-09-30T16:37:12;2.50;;;0.90;;
66987;SDS011;53908;51.464;-2.588;2022-09-30T16:39:38;3.25;;;0.80;;
66987;SDS011;53908;51.464;-2.588;2022-09-30T16:42:04;2.42;;;0.73;;
66987;SDS011;53908;51.464;-2.588;2022-09-30T16:44:30;5.70;;;1.10;;
66987;SDS011;53908;51.464;-2.588;2022-09-30T16:46:59;4.25;;;1.20;;
66987;SDS011;53908;51.464;-2.588;2022-09-30T16:49:25;3.47;;;0.90;;
66987;SDS011;53908;51.464;-2.588;2022-09-30T16:51:51;2.78;;;1.20;;
66987;SDS011;53908;51.464;-2.588;2022-09-30T16:54:16;3.28;;;0.80;;
66987;SDS011;53908;51.464;-2.588;2022-09-30T16:56:42;3.33;;;1.02;;
66987;SDS011;53908;51.464;-2.588;2022-09-30T16:59:12;4.55;;;1.10;;
66987;SDS011;53908;51.464;-2.588;2022-09-30T17:01:39;2.95;;;0.95;;
66987;SDS011;53908;51.464;-2.588;2022-09-30T17:04:05;3.80;;;0.93;;
66987;SDS011;53908;51.464;-2.588;2022-09-30T17:06:31;1.65;;;0.93;;
66987;SDS011;53908;51.464;-2.588;2022-09-30T17:08:58;1.48;;;1.00;;
66987;SDS011;53908;51.464;-2.588;2022-09-30T17:11:27;1.85;;;1.00;;
66987;SDS011;53908;51.464;-2.588;2022-09-30T17:13:55;2.97;;;1.15;;
66987;SDS011;53908;51.464;-2.588;2022-09-30T17:16:21;2.83;;;1.05;;
66987;SDS011;53908;51.464;-2.588;2022-09-30T17:18:47;3.35;;;1.55;;
66987;SDS011;53908;51.464;-2.588;2022-09-30T17:21:17;2.25;;;0.93;;
66987;SDS011;53908;51.464;-2.588;2022-09-30T17:23:44;2.35;;;1.15;;
66987;SDS011;53908;51.464;-2.588;2022-09-30T17:26:09;2.20;;;1.08;;
66987;SDS011;53908;51.464;-2.588;2022-09-30T17:28:35;5.40;;;1.00;;
66987;SDS011;53908;51.464;-2.588;2022-09-30T17:31:00;4.78;;;1.05;;
66987;SDS011;53908;51.464;-2.588;2022-09-30T17:33:33;1.25;;;0.90;;
66987;SDS011;53908;51.464;-2.588;2022-09-30T17:36:01;2.20;;;1.10;;
66987;SDS011;53908;51.464;-2.588;2022-09-30T17:38:30;2.95;;;1.08;;
66987;SDS011;53908;51.464;-2.588;2022-09-30T17:40:55;3.55;;;1.33;;
66987;SDS011;53908;51.464;-2.588;2022-09-30T17:43:39;3.00;;;1.20;;
66987;SDS011;53908;51.464;-2.588;2022-09-30T17:46:05;4.47;;;1.30;;
66987;SDS011;53908;51.464;-2.588;2022-09-30T17:48:30;4.25;;;1.60;;
66987;SDS011;53908;51.464;-2.588;2022-09-30T17:50:56;3.08;;;1.30;;
66987;SDS011;53908;51.464;-2.588;2022-09-30T17:53:24;2.97;;;1.33;;
66987;SDS011;53908;51.464;-2.588;2022-09-30T17:55:59;3.72;;;1.40;;
66987;SDS011;53908;51.464;-2.588;2022-09-30T17:58:26;2.97;;;1.20;;
66987;SDS011;53908;51.464;-2.588;2022-09-30T18:00:53;3.40;;;1.42;;
66987;SDS011;53908;51.464;-2.588;2022-09-30T18:03:21;2.50;;;1.35;;
66987;SDS011;53908;51.464;-2.588;2022-09-30T18:05:47;6.25;;;1.83;;
66987;SDS011;53908;51.464;-2.588;2022-09-30T18:08:12;2.38;;;1.38;;
66987;SDS011;53908;51.464;-2.588;2022-09-30T18:10:38;4.03;;;1.65;;
66987;SDS011;53908;51.464;-2.588;2022-09-30T18:13:04;4.05;;;1.60;;